createdAt,value
2022-11-12T00:00:34.663Z,98573.63
2022-11-12T00:01:36.566Z,98572.03
2022-11-12T00:02:38.473Z,98573.38
2022-11-12T00:03:40.385Z,98579.25
2022-11-12T00:04:42.179Z,98569.53
2022-11-12T00:05:47.077Z,98561.06
2022-11-12T00:06:48.892Z,98571.28
2022-11-12T00:07:50.709Z,98566.91
2022-11-12T00:08:52.636Z,98560.78
2022-11-12T00:09:54.540Z,98564.75
2022-11-12T00:10:56.346Z,98566.53
2022-11-12T00:11:58.133Z,98568.81
2022-11-12T00:12:59.994Z,98567.19
2022-11-12T00:14:01.867Z,98562.25
2022-11-12T00:15:04.166Z,98560.63
2022-11-12T00:16:06.161Z,98568.81
2022-11-12T00:17:07.936Z,98572.25
2022-11-12T00:18:09.855Z,98568.69
2022-11-12T00:19:11.775Z,98571.41
2022-11-12T00:20:13.661Z,98572.38
2022-11-12T00:21:15.492Z,98570.59
2022-11-12T00:22:17.337Z,98570.72
2022-11-12T00:23:19.097Z,98572.50
2022-11-12T00:24:20.964Z,98571.69
2022-11-12T00:25:22.778Z,98572.38
2022-11-12T00:26:24.557Z,98569.22
2022-11-12T00:27:26.406Z,98580.69
2022-11-12T00:28:31.068Z,98569.75
2022-11-12T00:29:35.368Z,98571.66
2022-11-12T00:30:40.861Z,98571.66
2022-11-12T00:31:42.634Z,98573.28
2022-11-12T00:32:44.409Z,98570.56
2022-11-12T00:33:46.340Z,98568.66
2022-11-12T00:34:48.317Z,98567.84
2022-11-12T00:35:50.191Z,98571.25
2022-11-12T00:36:52.136Z,98570.31
2022-11-12T00:37:55.151Z,98575.22
2022-11-12T00:38:56.950Z,98571.28
2022-11-12T00:39:58.922Z,98565.16
2022-11-12T00:41:00.988Z,98575.53
2022-11-12T00:42:02.795Z,98570.31
2022-11-12T00:43:04.620Z,98572.63
2022-11-12T00:44:06.458Z,98573.59
2022-11-12T00:45:08.568Z,98570.56
2022-11-12T00:46:10.407Z,98574.81
2022-11-12T00:47:12.242Z,98577.78
2022-11-12T00:48:14.091Z,98582.84
2022-11-12T00:49:16.022Z,98570.41
2022-11-12T00:50:17.946Z,98564.81
2022-11-12T00:51:19.857Z,98573.28
2022-11-12T00:52:21.673Z,98570.41
2022-11-12T00:53:23.424Z,98570.97
2022-11-12T00:54:25.192Z,98571.91
2022-11-12T00:55:27.167Z,98569.06
2022-11-12T00:56:34.444Z,98567.28
2022-11-12T00:57:37.587Z,98569.06
2022-11-12T00:58:39.413Z,98569.19
2022-11-12T00:59:41.363Z,98565.34
2022-11-12T01:00:43.411Z,98564.25
2022-11-12T01:01:45.303Z,98566.56
2022-11-12T01:02:50.996Z,98559.81
2022-11-12T01:03:53.995Z,98570.09
2022-11-12T01:04:55.865Z,98559.72
2022-11-12T01:06:02.601Z,98563.13
2022-11-12T01:07:04.536Z,98571.03
2022-11-12T01:08:06.378Z,98566.09
2022-11-12T01:09:09.086Z,98563.13
2022-11-12T01:10:11.268Z,98569.16
2022-11-12T01:11:14.459Z,98559.00
2022-11-12T01:12:16.249Z,98556.19
2022-11-12T01:13:18.092Z,98561.47
2022-11-12T01:14:19.870Z,98566.41
2022-11-12T01:15:21.640Z,98563.69
2022-11-12T01:16:24.716Z,98558.38
2022-11-12T01:17:26.473Z,98557.94
2022-11-12T01:18:28.652Z,98552.75
2022-11-12T01:19:30.612Z,98558.06
2022-11-12T01:20:32.426Z,98555.34
2022-11-12T01:21:37.476Z,98556.19
2022-11-12T01:22:39.348Z,98552.75
2022-11-12T01:23:41.874Z,98560.91
2022-11-12T01:24:43.721Z,98562.38
2022-11-12T01:25:45.599Z,98557.59
2022-11-12T01:26:48.282Z,98559.75
2022-11-12T01:27:50.057Z,98569.16
2022-11-12T01:28:51.980Z,98560.56
2022-11-12T01:29:53.847Z,98561.66
2022-11-12T01:30:55.602Z,98566.28
2022-11-12T01:31:57.421Z,98564.38
2022-11-12T01:32:59.207Z,98566.16
2022-11-12T01:34:02.169Z,98564.38
2022-11-12T01:35:04.225Z,98564.50
2022-11-12T01:36:06.773Z,98565.47
2022-11-12T01:37:08.502Z,98565.69
2022-11-12T01:38:10.268Z,98563.22
2022-11-12T01:39:12.056Z,98570.63
2022-11-12T01:40:13.868Z,98555.09
2022-11-12T01:41:17.786Z,98566.16
2022-11-12T01:42:19.572Z,98566.50
2022-11-12T01:43:21.322Z,98561.84
2022-11-12T01:44:25.357Z,98559.53
2022-11-12T01:45:27.273Z,98564.84
2022-11-12T01:46:30.313Z,98563.06
2022-11-12T01:47:34.439Z,98562.94
2022-11-12T01:48:39.934Z,98557.63
2022-11-12T01:49:41.685Z,98558.00
2022-11-12T01:50:43.591Z,98554.34
2022-11-12T01:51:48.633Z,98551.50
2022-11-12T01:52:53.150Z,98552.59
2022-11-12T01:53:58.256Z,98550.00
2022-11-12T01:55:03.567Z,98547.97
2022-11-12T01:56:05.972Z,98558.34
2022-11-12T01:57:09.977Z,98543.03
2022-11-12T01:58:16.432Z,98556.78
2022-11-12T01:59:22.796Z,98550.81
2022-11-12T02:00:24.585Z,98551.50
2022-11-12T02:01:26.546Z,98544.69
2022-11-12T02:02:29.002Z,98547.16
2022-11-12T02:03:30.881Z,98543.59
2022-11-12T02:04:33.916Z,98542.34
2022-11-12T02:05:37.707Z,98548.22
2022-11-12T02:06:41.329Z,98542.22
2022-11-12T02:07:44.321Z,98538.81
2022-11-12T02:08:46.292Z,98541.41
2022-11-12T02:09:48.171Z,98539.88
2022-11-12T02:10:50.827Z,98539.88
2022-11-12T02:11:52.714Z,98546.94
2022-11-12T02:13:13.604Z,98546.84
2022-11-12T02:14:15.397Z,98547.41
2022-11-12T02:15:17.222Z,98552.69
2022-11-12T02:16:19.195Z,98546.84
2022-11-12T02:17:21.077Z,98545.22
2022-11-12T02:18:23.157Z,98539.19
2022-11-12T02:19:26.093Z,98538.09
2022-11-12T02:20:27.901Z,98536.44
2022-11-12T02:21:30.198Z,98541.34
2022-11-12T02:22:31.989Z,98541.66
2022-11-12T02:23:33.914Z,98529.41
2022-11-12T02:24:37.178Z,98543.72
2022-11-12T02:25:39.003Z,98534.59
2022-11-12T02:26:43.683Z,98532.28
2022-11-12T02:27:45.635Z,98531.31
2022-11-12T02:28:47.509Z,98535.91
2022-11-12T02:29:49.391Z,98528.28
2022-11-12T02:30:51.366Z,98531.25
2022-11-12T02:31:53.161Z,98526.47
2022-11-12T02:32:54.927Z,98526.75
2022-11-12T02:33:56.795Z,98531.66
2022-11-12T02:34:58.701Z,98527.28
2022-11-12T02:36:00.503Z,98528.34
2022-11-12T02:37:02.307Z,98532.59
2022-11-12T02:38:04.753Z,98530.94
2022-11-12T02:39:06.619Z,98523.31
2022-11-12T02:40:09.001Z,98519.50
2022-11-12T02:41:10.842Z,98524.84
2022-11-12T02:42:12.669Z,98520.59
2022-11-12T02:43:14.479Z,98527.16
2022-11-12T02:44:16.321Z,98530.94
2022-11-12T02:45:19.167Z,98520.88
2022-11-12T02:46:20.915Z,98520.88
2022-11-12T02:47:22.722Z,98516.50
2022-11-12T02:48:24.522Z,98520.03
2022-11-12T02:49:26.360Z,98515.94
2022-11-12T02:50:28.115Z,98513.22
2022-11-12T02:51:30.019Z,98517.84
2022-11-12T02:52:32.649Z,98514.03
2022-11-12T02:53:34.664Z,98518.13
2022-11-12T02:54:36.517Z,98514.72
2022-11-12T02:55:38.271Z,98518.00
2022-11-12T02:56:40.063Z,98510.00
2022-11-12T02:57:41.935Z,98512.72
2022-11-12T02:58:43.851Z,98513.53
2022-11-12T02:59:45.620Z,98514.09
2022-11-12T03:00:47.504Z,98511.09
2022-11-12T03:01:49.413Z,98513.00
2022-11-12T03:02:59.868Z,98513.00
2022-11-12T03:04:01.826Z,98516.69
2022-11-12T03:05:03.700Z,98510.38
2022-11-12T03:06:05.760Z,98509.56
2022-11-12T03:07:07.642Z,98511.91
2022-11-12T03:08:10.364Z,98517.31
2022-11-12T03:09:13.009Z,98513.78
2022-11-12T03:10:14.825Z,98515.03
2022-11-12T03:11:17.662Z,98514.34
2022-11-12T03:12:19.495Z,98521.13
2022-11-12T03:13:21.561Z,98516.22
2022-11-12T03:14:23.500Z,98522.75
2022-11-12T03:15:25.881Z,98527.94
2022-11-12T03:16:27.704Z,98519.22
2022-11-12T03:17:29.520Z,98523.31
2022-11-12T03:18:31.382Z,98522.06
2022-11-12T03:19:33.239Z,98515.50
2022-11-12T03:20:37.640Z,98526.28
2022-11-12T03:21:39.522Z,98526.28
2022-11-12T03:22:41.457Z,98523.56
2022-11-12T03:23:43.310Z,98516.22
2022-11-12T03:24:45.136Z,98523.81
2022-11-12T03:25:47.023Z,98521.13
2022-11-12T03:26:48.843Z,98523.31
2022-11-12T03:27:56.802Z,98527.28
2022-11-12T03:28:58.710Z,98526.47
2022-11-12T03:30:00.588Z,98526.06
2022-11-12T03:31:02.653Z,98523.38
2022-11-12T03:32:04.611Z,98528.97
2022-11-12T03:33:07.611Z,98521.91
2022-11-12T03:34:09.506Z,98519.31
2022-11-12T03:35:11.270Z,98528.47
2022-11-12T03:36:13.235Z,98521.50
2022-11-12T03:37:15.048Z,98526.81
2022-11-12T03:38:16.884Z,98525.44
2022-11-12T03:39:18.701Z,98531.69
2022-11-12T03:40:20.612Z,98528.81
2022-11-12T03:41:22.480Z,98533.28
2022-11-12T03:42:24.294Z,98527.44
2022-11-12T03:43:26.128Z,98526.03
2022-11-12T03:44:28.042Z,98525.59
2022-11-12T03:45:29.976Z,98526.03
2022-11-12T03:46:32.002Z,98527.44
2022-11-12T03:47:33.840Z,98535.03
2022-11-12T03:48:35.746Z,98530.03
2022-11-12T03:49:37.520Z,98529.06
2022-11-12T03:50:39.337Z,98526.22
2022-11-12T03:51:41.222Z,98522.78
2022-11-12T03:52:46.715Z,98530.03
2022-11-12T03:53:48.472Z,98525.00
2022-11-12T03:54:50.296Z,98522.28
2022-11-12T03:55:52.155Z,98527.22
2022-11-12T03:56:53.991Z,98531.31
2022-11-12T03:57:56.307Z,98525.31
2022-11-12T03:58:58.090Z,98531.88
2022-11-12T03:59:59.849Z,98531.56
2022-11-12T04:01:01.723Z,98521.59
2022-11-12T04:02:03.871Z,98519.66
2022-11-12T04:03:05.690Z,98523.00
2022-11-12T04:04:07.570Z,98523.63
2022-11-12T04:05:28.280Z,98522.72
2022-11-12T04:06:48.333Z,98514.56
2022-11-12T04:08:09.564Z,98518.34
2022-11-12T04:09:11.392Z,98514.69
2022-11-12T04:10:13.242Z,98511.16
2022-11-12T04:11:16.003Z,98517.53
2022-11-12T04:12:36.066Z,98513.16
2022-11-12T04:13:38.838Z,98509.19
2022-11-12T04:14:40.630Z,98514.88
2022-11-12T04:15:42.397Z,98514.19
2022-11-12T04:17:02.810Z,98515.13
2022-11-12T04:18:23.222Z,98514.44
2022-11-12T04:19:43.781Z,98511.03
2022-11-12T04:21:03.902Z,98502.56
2022-11-12T04:22:09.604Z,98510.91
2022-11-12T04:23:11.396Z,98503.38
2022-11-12T04:24:33.383Z,98503.97
2022-11-12T04:25:53.637Z,98504.91
2022-11-12T04:26:55.461Z,98505.97
2022-11-12T04:27:57.247Z,98500.00
2022-11-12T04:29:17.443Z,98506.66
2022-11-12T04:30:19.871Z,98505.28
2022-11-12T04:31:21.711Z,98502.00
2022-11-12T04:32:23.611Z,98496.81
2022-11-12T04:33:25.356Z,98498.88
2022-11-12T04:34:30.025Z,98498.03
2022-11-12T04:35:31.897Z,98497.34
2022-11-12T04:36:33.759Z,98507.50
2022-11-12T04:37:45.616Z,98502.31
2022-11-12T04:38:47.466Z,98496.91
2022-11-12T04:39:49.243Z,98499.81
2022-11-12T04:41:09.579Z,98497.66
2022-11-12T04:42:29.603Z,98501.31
2022-11-12T04:43:49.831Z,98506.97
2022-11-12T04:45:01.405Z,98503.13
2022-11-12T04:46:04.661Z,98503.00
2022-11-12T04:47:06.479Z,98501.81
2022-11-12T04:48:08.376Z,98499.91
2022-11-12T04:49:10.188Z,98505.47
2022-11-12T04:50:16.200Z,98493.34
2022-11-12T04:51:36.197Z,98500.44
2022-11-12T04:52:38.127Z,98501.00
2022-11-12T04:53:39.993Z,98503.47
2022-11-12T04:54:41.982Z,98497.22
2022-11-12T04:55:43.881Z,98502.28
2022-11-12T04:56:45.676Z,98497.22
2022-11-12T04:57:47.446Z,98500.50
2022-11-12T04:58:49.321Z,98503.78
2022-11-12T04:59:51.110Z,98494.81
2022-11-12T05:00:53.017Z,98498.78
2022-11-12T05:01:54.864Z,98498.53
2022-11-12T05:02:56.787Z,98502.53
2022-11-12T05:03:58.593Z,98496.66
2022-11-12T05:05:00.377Z,98491.59
2022-11-12T05:06:02.885Z,98496.78
2022-11-12T05:07:05.243Z,98498.09
2022-11-12T05:08:07.033Z,98494.50
2022-11-12T05:09:08.782Z,98496.13
2022-11-12T05:10:10.927Z,98493.44
2022-11-12T05:11:13.132Z,98497.66
2022-11-12T05:12:14.998Z,98498.59
2022-11-12T05:13:16.788Z,98500.38
2022-11-12T05:14:19.094Z,98490.16
2022-11-12T05:15:20.969Z,98492.50
2022-11-12T05:16:22.736Z,98501.75
2022-11-12T05:17:24.555Z,98492.34
2022-11-12T05:18:26.670Z,98499.41
2022-11-12T05:19:28.702Z,98494.25
2022-11-12T05:20:30.580Z,98490.53
2022-11-12T05:21:50.697Z,98495.00
2022-11-12T05:23:05.779Z,98498.28
2022-11-12T05:24:08.402Z,98497.91
2022-11-12T05:25:10.646Z,98491.22
2022-11-12T05:26:12.557Z,98486.28
2022-11-12T05:27:15.905Z,98489.16
2022-11-12T05:28:17.658Z,98494.75
2022-11-12T05:29:19.558Z,98488.53
2022-11-12T05:30:21.421Z,98486.41
2022-11-12T05:31:23.196Z,98490.88
2022-11-12T05:32:25.120Z,98497.84
2022-11-12T05:33:26.999Z,98498.34
2022-11-12T05:34:28.853Z,98499.03
2022-11-12T05:35:30.680Z,98500.94
2022-11-12T05:36:32.661Z,98504.59
2022-11-12T05:37:34.466Z,98509.50
2022-11-12T05:38:38.612Z,98505.59
2022-11-12T05:39:40.415Z,98505.59
2022-11-12T05:40:45.003Z,98508.75
2022-11-12T05:42:11.495Z,98506.56
2022-11-12T05:43:08.651Z,98501.75
2022-11-12T05:44:10.695Z,98506.38
2022-11-12T05:45:13.292Z,98509.66
2022-11-12T05:46:15.125Z,98511.59
2022-11-12T05:47:17.080Z,98518.19
2022-11-12T05:48:23.134Z,98514.75
2022-11-12T05:49:26.762Z,98515.81
2022-11-12T05:50:34.874Z,98512.66
2022-11-12T05:51:41.521Z,98513.13
2022-11-12T05:52:43.407Z,98506.75
2022-11-12T05:53:45.180Z,98514.25
2022-11-12T05:54:46.997Z,98510.59
2022-11-12T05:55:48.758Z,98502.69
2022-11-12T05:56:51.750Z,98507.44
2022-11-12T05:57:53.607Z,98518.47
2022-11-12T05:58:55.572Z,98519.41
2022-11-12T05:59:57.379Z,98521.44
2022-11-12T06:00:59.269Z,98514.75
2022-11-12T06:02:01.216Z,98509.97
2022-11-12T06:03:03.181Z,98505.88
2022-11-12T06:04:05.040Z,98511.16
2022-11-12T06:05:07.016Z,98512.09
2022-11-12T06:06:09.040Z,98513.75
2022-11-12T06:07:10.839Z,98514.31
2022-11-12T06:08:12.765Z,98511.84
2022-11-12T06:09:14.811Z,98511.03
2022-11-12T06:10:20.475Z,98508.56
2022-11-12T06:11:22.675Z,98511.84
2022-11-12T06:12:24.526Z,98514.31
2022-11-12T06:13:26.907Z,98515.13
2022-11-12T06:14:28.684Z,98514.66
2022-11-12T06:15:32.849Z,98515.25
2022-11-12T06:16:37.024Z,98513.03
2022-11-12T06:17:38.896Z,98513.66
2022-11-12T06:18:40.768Z,98510.66
2022-11-12T06:19:42.517Z,98514.16
2022-11-12T06:20:44.454Z,98512.28
2022-11-12T06:21:46.276Z,98512.59
2022-11-12T06:22:48.275Z,98512.59
2022-11-12T06:23:55.246Z,98516.94
2022-11-12T06:24:57.052Z,98520.22
2022-11-12T06:25:59.015Z,98517.53
2022-11-12T06:27:00.953Z,98528.69
2022-11-12T06:28:02.682Z,98518.34
2022-11-12T06:29:04.634Z,98512.94
2022-11-12T06:30:07.270Z,98519.59
2022-11-12T06:31:09.193Z,98523.28
2022-11-12T06:32:11.442Z,98519.16
2022-11-12T06:33:13.247Z,98519.53
2022-11-12T06:34:15.192Z,98517.75
2022-11-12T06:35:18.015Z,98522.00
2022-11-12T06:36:21.088Z,98522.56
2022-11-12T06:37:22.939Z,98522.06
2022-11-12T06:38:24.985Z,98528.19
2022-11-12T06:39:27.139Z,98523.81
2022-11-12T06:40:28.966Z,98524.50
2022-11-12T06:41:30.724Z,98529.34
2022-11-12T06:42:32.522Z,98532.97
2022-11-12T06:43:34.715Z,98526.97
2022-11-12T06:44:36.622Z,98529.56
2022-11-12T06:45:38.527Z,98534.38
2022-11-12T06:46:40.336Z,98531.47
2022-11-12T06:47:42.169Z,98531.34
2022-11-12T06:48:43.959Z,98533.53
2022-11-12T06:49:45.862Z,98530.72
2022-11-12T06:50:47.715Z,98529.34
2022-11-12T06:51:52.272Z,98529.06
2022-11-12T06:52:58.422Z,98536.72
2022-11-12T06:54:00.344Z,98535.38
2022-11-12T06:55:02.330Z,98535.38
2022-11-12T06:56:05.746Z,98537.84
2022-11-12T06:57:07.555Z,98541.66
2022-11-12T06:58:09.447Z,98537.84
2022-11-12T06:59:11.258Z,98546.44
2022-11-12T07:00:13.485Z,98543.34
2022-11-12T07:01:16.124Z,98549.72
2022-11-12T07:02:18.100Z,98545.16
2022-11-12T07:03:19.867Z,98549.75
2022-11-12T07:04:21.775Z,98550.34
2022-11-12T07:05:23.631Z,98552.00
2022-11-12T07:06:25.519Z,98548.72
2022-11-12T07:07:28.986Z,98549.53
2022-11-12T07:08:30.821Z,98552.09
2022-11-12T07:09:32.591Z,98556.78
2022-11-12T07:10:35.691Z,98545.34
2022-11-12T07:11:37.769Z,98547.81
2022-11-12T07:12:39.616Z,98547.13
2022-11-12T07:13:41.907Z,98548.91
2022-11-12T07:14:43.801Z,98542.75
2022-11-12T07:15:45.672Z,98552.41
2022-11-12T07:16:47.534Z,98548.22
2022-11-12T07:17:49.486Z,98551.50
2022-11-12T07:18:51.273Z,98547.13
2022-11-12T07:19:53.077Z,98546.84
2022-11-12T07:21:02.190Z,98547.69
2022-11-12T07:22:04.075Z,98547.00
2022-11-12T07:23:05.873Z,98538.16
2022-11-12T07:24:08.415Z,98552.72
2022-11-12T07:25:10.304Z,98542.66
2022-11-12T07:26:18.077Z,98548.41
2022-11-12T07:27:19.987Z,98541.19
2022-11-12T07:28:21.809Z,98541.06
2022-11-12T07:29:35.950Z,98542.84
2022-11-12T07:30:45.433Z,98540.94
2022-11-12T07:31:47.260Z,98544.09
2022-11-12T07:32:52.000Z,98549.41
2022-11-12T07:33:54.156Z,98546.34
2022-11-12T07:34:55.984Z,98549.09
2022-11-12T07:35:59.349Z,98555.88
2022-11-12T07:37:01.303Z,98548.13
2022-11-12T07:38:03.179Z,98547.75
2022-11-12T07:39:04.976Z,98544.91
2022-11-12T07:40:07.017Z,98547.25
2022-11-12T07:41:29.112Z,98543.72
2022-11-12T07:42:34.738Z,98540.19
2022-11-12T07:43:37.318Z,98549.19
2022-11-12T07:44:39.133Z,98545.53
2022-11-12T07:45:40.946Z,98546.25
2022-11-12T07:46:42.790Z,98556.59
2022-11-12T07:47:46.727Z,98547.16
2022-11-12T07:48:48.919Z,98546.75
2022-11-12T07:49:50.768Z,98553.31
2022-11-12T07:50:52.626Z,98540.91
2022-11-12T07:51:54.436Z,98540.53
2022-11-12T07:52:58.417Z,98541.78
2022-11-12T07:54:00.298Z,98539.50
2022-11-12T07:55:02.325Z,98547.97
2022-11-12T07:56:05.165Z,98542.41
2022-11-12T07:57:06.944Z,98545.25
2022-11-12T07:58:08.780Z,98552.34
2022-11-12T07:59:10.631Z,98553.16
2022-11-12T08:00:12.705Z,98556.44
2022-11-12T08:01:20.784Z,98554.78
2022-11-12T08:02:22.692Z,98555.34
2022-11-12T08:03:24.615Z,98545.00
2022-11-12T08:04:26.493Z,98544.19
2022-11-12T08:05:28.301Z,98552.88
2022-11-12T08:06:30.654Z,98548.78
2022-11-12T08:07:32.540Z,98546.59
2022-11-12T08:08:34.542Z,98552.59
2022-11-12T08:09:36.442Z,98556.44
2022-11-12T08:10:38.732Z,98553.44
2022-11-12T08:11:42.341Z,98556.47
2022-11-12T08:12:44.178Z,98557.28
2022-11-12T08:13:46.020Z,98557.28
2022-11-12T08:14:47.836Z,98557.69
2022-11-12T08:15:52.190Z,98559.19
2022-11-12T08:16:54.366Z,98560.81
2022-11-12T08:17:56.207Z,98564.09
2022-11-12T08:18:58.099Z,98563.84
2022-11-12T08:19:59.982Z,98558.78
2022-11-12T08:21:05.707Z,98563.84
2022-11-12T08:22:07.535Z,98561.84
2022-11-12T08:23:10.096Z,98560.06
2022-11-12T08:24:12.003Z,98561.44
2022-11-12T08:25:13.767Z,98566.34
2022-11-12T08:26:17.434Z,98559.97
2022-11-12T08:27:19.212Z,98558.06
2022-11-12T08:28:21.057Z,98565.34
2022-11-12T08:29:25.658Z,98553.09
2022-11-12T08:30:27.777Z,98557.03
2022-11-12T08:31:29.636Z,98561.00
2022-11-12T08:32:31.818Z,98564.28
2022-11-12T08:33:34.101Z,98561.00
2022-11-12T08:34:36.463Z,98558.94
2022-11-12T08:35:38.314Z,98559.63
2022-11-12T08:36:40.853Z,98562.09
2022-11-12T08:37:42.651Z,98561.16
2022-11-12T08:38:45.302Z,98564.97
2022-11-12T08:39:47.227Z,98563.19
2022-11-12T08:40:48.985Z,98567.41
2022-11-12T08:41:50.769Z,98562.38
2022-11-12T08:43:00.124Z,98560.84
2022-11-12T08:44:08.163Z,98562.06
2022-11-12T08:45:10.744Z,98567.94
2022-11-12T08:46:12.608Z,98563.44
2022-11-12T08:47:14.523Z,98563.28
2022-11-12T08:48:16.369Z,98562.06
2022-11-12T08:49:18.282Z,98565.91
2022-11-12T08:50:20.092Z,98566.88
2022-11-12T08:51:22.037Z,98569.88
2022-11-12T08:52:23.843Z,98565.13
2022-11-12T08:53:25.880Z,98572.50
2022-11-12T08:54:27.711Z,98571.69
2022-11-12T08:55:29.806Z,98564.03
2022-11-12T08:56:31.725Z,98569.78
2022-11-12T08:57:39.082Z,98571.28
2022-11-12T08:58:40.897Z,98571.28
2022-11-12T08:59:42.784Z,98573.31
2022-11-12T09:00:44.884Z,98573.06
2022-11-12T09:01:46.753Z,98572.66
2022-11-12T09:02:48.627Z,98568.44
2022-11-12T09:03:50.477Z,98570.63
2022-11-12T09:04:52.429Z,98571.19
2022-11-12T09:05:54.475Z,98568.88
2022-11-12T09:06:56.326Z,98577.59
2022-11-12T09:07:58.777Z,98565.06
2022-11-12T09:09:00.650Z,98571.72
2022-11-12T09:10:02.565Z,98562.72
2022-11-12T09:11:04.459Z,98569.00
2022-11-12T09:12:14.994Z,98566.28
2022-11-12T09:13:20.335Z,98570.94
2022-11-12T09:14:22.189Z,98559.22
2022-11-12T09:15:40.194Z,98563.00
2022-11-12T09:16:42.142Z,98566.72
2022-11-12T09:17:44.039Z,98558.63
2022-11-12T09:18:45.925Z,98561.78
2022-11-12T09:19:47.689Z,98561.91
2022-11-12T09:20:49.652Z,98560.16
2022-11-12T09:21:51.458Z,98562.47
2022-11-12T09:22:53.205Z,98564.13
2022-11-12T09:23:55.863Z,98561.53
2022-11-12T09:24:57.651Z,98565.91
2022-11-12T09:25:59.565Z,98557.97
2022-11-12T09:27:01.298Z,98562.59
2022-11-12T09:28:07.027Z,98558.94
2022-11-12T09:29:09.004Z,98570.81
2022-11-12T09:30:11.114Z,98578.03
2022-11-12T09:31:12.993Z,98576.81
2022-11-12T09:32:14.747Z,98574.75
2022-11-12T09:33:20.580Z,98571.47
2022-11-12T09:34:22.427Z,98569.13
2022-11-12T09:35:24.284Z,98576.91
2022-11-12T09:36:26.149Z,98573.19
2022-11-12T09:37:27.983Z,98565.25
2022-11-12T09:38:30.184Z,98571.91
2022-11-12T09:39:32.000Z,98572.03
2022-11-12T09:40:36.535Z,98566.94
2022-11-12T09:41:40.282Z,98564.97
2022-11-12T09:42:44.680Z,98556.97
2022-11-12T09:43:49.099Z,98555.13
2022-11-12T09:45:06.418Z,98565.03
2022-11-12T09:46:43.692Z,98565.53
2022-11-12T09:47:46.774Z,98562.34
2022-11-12T09:48:52.327Z,98560.81
2022-11-12T09:49:54.061Z,98550.31
2022-11-12T09:51:06.810Z,98554.25
2022-11-12T09:52:21.639Z,98558.44
2022-11-12T09:53:30.561Z,98558.63
2022-11-12T09:54:33.733Z,98553.88
2022-11-12T09:55:40.013Z,98552.91
2022-11-12T09:56:41.859Z,98554.25
2022-11-12T09:57:43.657Z,98544.88
2022-11-12T09:58:45.479Z,98553.03
2022-11-12T09:59:47.428Z,98555.69
2022-11-12T10:00:56.631Z,98554.75
2022-11-12T10:01:58.652Z,98541.13
2022-11-12T10:03:12.875Z,98547.38
2022-11-12T10:04:33.186Z,98536.69
2022-11-12T10:05:42.414Z,98539.31
2022-11-12T10:06:55.704Z,98530.38
2022-11-12T10:08:16.010Z,98530.59
2022-11-12T10:09:20.546Z,98534.19
2022-11-12T10:10:34.550Z,98530.59
2022-11-12T10:12:09.566Z,98530.66
2022-11-12T10:13:18.900Z,98526.13
2022-11-12T10:14:20.676Z,98523.56
2022-11-12T10:15:47.306Z,98517.34
2022-11-12T10:16:49.068Z,98514.44
2022-11-12T10:17:55.265Z,98514.28
2022-11-12T10:19:19.427Z,98513.50
2022-11-12T10:20:25.731Z,98510.28
2022-11-12T10:21:35.529Z,98514.53
2022-11-12T10:22:40.393Z,98507.06
2022-11-12T10:23:50.940Z,98499.56
2022-11-12T10:24:52.831Z,98508.25
2022-11-12T10:25:58.065Z,98513.16
2022-11-12T10:27:00.414Z,98510.19
2022-11-12T10:28:08.456Z,98504.66
2022-11-12T10:29:13.403Z,98499.47
2022-11-12T10:30:17.289Z,98499.63
2022-11-12T10:31:20.476Z,98499.94
2022-11-12T10:32:22.256Z,98489.16
2022-11-12T10:33:24.145Z,98497.59
2022-11-12T10:34:26.174Z,98492.72
2022-11-12T10:35:27.947Z,98490.66
2022-11-12T10:36:34.403Z,98490.00
2022-11-12T10:37:36.276Z,98491.47
2022-11-12T10:38:38.271Z,98491.97
2022-11-12T10:39:41.665Z,98489.22
2022-11-12T10:40:43.532Z,98490.34
2022-11-12T10:41:45.367Z,98495.75
2022-11-12T10:43:00.655Z,98490.19
2022-11-12T10:44:03.659Z,98479.25
2022-11-12T10:45:31.919Z,98484.66
2022-11-12T10:46:35.540Z,98485.44
2022-11-12T10:47:39.146Z,98475.16
2022-11-12T10:48:40.953Z,98485.59
2022-11-12T10:49:42.766Z,98479.72
2022-11-12T10:50:44.568Z,98473.66
2022-11-12T10:51:56.041Z,98474.97
2022-11-12T10:53:01.729Z,98461.25
2022-11-12T10:54:20.090Z,98466.66
2022-11-12T10:55:27.936Z,98466.63
2022-11-12T10:56:31.252Z,98466.44
2022-11-12T10:57:33.074Z,98465.97
2022-11-12T10:58:34.904Z,98460.38
2022-11-12T10:59:36.731Z,98457.09
2022-11-12T11:00:51.666Z,98448.63
2022-11-12T11:02:01.564Z,98454.31
2022-11-12T11:03:07.003Z,98447.63
2022-11-12T11:04:23.354Z,98438.94
2022-11-12T11:05:29.600Z,98444.94
2022-11-12T11:06:31.477Z,98437.56
2022-11-12T11:07:33.401Z,98443.09
2022-11-12T11:08:45.757Z,98434.72
2022-11-12T11:09:55.401Z,98431.78
2022-11-12T11:11:15.631Z,98433.06
2022-11-12T11:12:28.115Z,98428.81
2022-11-12T11:13:29.914Z,98429.94
2022-11-12T11:14:33.245Z,98426.00
2022-11-12T11:15:35.238Z,98427.13
2022-11-12T11:16:49.014Z,98424.81
2022-11-12T11:17:51.014Z,98427.06
2022-11-12T11:19:00.302Z,98433.94
2022-11-12T11:20:02.811Z,98427.44
2022-11-12T11:21:04.753Z,98431.31
2022-11-12T11:22:06.688Z,98433.94
2022-11-12T11:23:17.084Z,98427.44
2022-11-12T11:24:24.842Z,98428.88
2022-11-12T11:25:28.528Z,98425.72
2022-11-12T11:26:38.981Z,98424.06
2022-11-12T11:27:40.645Z,98425.97
2022-11-12T11:29:09.089Z,98434.09
2022-11-12T11:30:13.656Z,98421.84
2022-11-12T11:31:33.840Z,98423.63
2022-11-12T11:32:54.029Z,98417.91
2022-11-12T11:34:11.188Z,98416.88
2022-11-12T11:35:19.026Z,98418.34
2022-11-12T11:36:20.838Z,98411.97
2022-11-12T11:37:26.358Z,98408.81
2022-11-12T11:38:31.228Z,98411.88
2022-11-12T11:39:33.060Z,98414.44
2022-11-12T11:40:47.140Z,98408.66
2022-11-12T11:42:04.700Z,98403.09
2022-11-12T11:43:18.657Z,98406.97
2022-11-12T11:44:36.708Z,98399.38
2022-11-12T11:45:44.320Z,98389.19
2022-11-12T11:46:55.295Z,98388.56
2022-11-12T11:48:05.462Z,98390.47
2022-11-12T11:49:25.397Z,98393.72
2022-11-12T11:50:39.874Z,98385.94
2022-11-12T11:51:44.654Z,98380.78
2022-11-12T11:52:50.073Z,98384.59
2022-11-12T11:53:51.957Z,98378.53
2022-11-12T11:55:29.395Z,98379.44
2022-11-12T11:56:37.072Z,98371.84
2022-11-12T11:57:44.641Z,98372.31
2022-11-12T11:59:01.473Z,98373.47
2022-11-12T12:00:14.579Z,98364.63
2022-11-12T12:01:22.142Z,98365.06
2022-11-12T12:02:39.863Z,98361.09
2022-11-12T12:03:41.650Z,98362.59
2022-11-12T12:04:48.042Z,98356.66
2022-11-12T12:05:58.856Z,98352.50
2022-11-12T12:07:00.721Z,98360.19
2022-11-12T12:08:08.430Z,98362.25
2022-11-12T12:09:12.972Z,98356.47
2022-11-12T12:10:22.956Z,98358.34
2022-11-12T12:11:47.906Z,98357.53
2022-11-12T12:13:00.800Z,98354.16
2022-11-12T12:14:21.330Z,98353.97
2022-11-12T12:15:26.241Z,98352.00
2022-11-12T12:16:43.318Z,98347.19
2022-11-12T12:17:59.664Z,98345.19
2022-11-12T12:19:19.811Z,98345.38
2022-11-12T12:20:25.598Z,98353.69
2022-11-12T12:21:32.119Z,98346.81
2022-11-12T12:22:38.684Z,98345.81
2022-11-12T12:23:49.210Z,98337.94
2022-11-12T12:24:55.297Z,98339.19
2022-11-12T12:26:00.438Z,98345.06
2022-11-12T12:27:08.703Z,98334.75
2022-11-12T12:28:17.854Z,98340.84
2022-11-12T12:29:19.645Z,98337.19
2022-11-12T12:30:22.716Z,98342.09
2022-11-12T12:31:28.542Z,98338.09
2022-11-12T12:32:37.954Z,98333.66
2022-11-12T12:33:48.775Z,98335.66
2022-11-12T12:34:56.672Z,98332.63
2022-11-12T12:36:00.561Z,98339.69